sensor_id;sensor_type;location;lat;lon;timestamp;P1;durP1;ratioP1;P2;durP2;ratioP2
34134;SDS011;20410;55.578;12.968;2022-11-04T00:01:42;15.43;;;5.63;;
34134;SDS011;20410;55.578;12.968;2022-11-04T00:04:10;16.63;;;6.20;;
34134;SDS011;20410;55.578;12.968;2022-11-04T00:06:37;10.87;;;5.23;;
34134;SDS011;20410;55.578;12.968;2022-11-04T00:09:04;12.60;;;5.63;;
34134;SDS011;20410;55.578;12.968;2022-11-04T00:11:32;12.80;;;5.37;;
34134;SDS011;20410;55.578;12.968;2022-11-04T00:14:16;15.37;;;6.47;;
34134;SDS011;20410;55.578;12.968;2022-11-04T00:16:42;11.57;;;5.57;;
34134;SDS011;20410;55.578;12.968;2022-11-04T00:19:27;14.03;;;6.07;;
34134;SDS011;20410;55.578;12.968;2022-11-04T00:21:53;12.23;;;5.50;;
34134;SDS011;20410;55.578;12.968;2022-11-04T00:24:38;14.13;;;6.47;;
34134;SDS011;20410;55.578;12.968;2022-11-04T00:27:14;16.23;;;6.00;;
34134;SDS011;20410;55.578;12.968;2022-11-04T00:30:00;15.93;;;6.37;;
34134;SDS011;20410;55.578;12.968;2022-11-04T00:32:26;18.50;;;5.80;;
34134;SDS011;20410;55.578;12.968;2022-11-04T00:35:11;11.63;;;5.30;;
34134;SDS011;20410;55.578;12.968;2022-11-04T00:37:37;9.90;;;5.67;;
34134;SDS011;20410;55.578;12.968;2022-11-04T00:40:04;13.40;;;6.27;;
34134;SDS011;20410;55.578;12.968;2022-11-04T00:42:31;13.57;;;5.73;;
34134;SDS011;20410;55.578;12.968;2022-11-04T00:44:56;12.50;;;6.43;;
34134;SDS011;20410;55.578;12.968;2022-11-04T00:47:22;12.73;;;6.17;;
34134;SDS011;20410;55.578;12.968;2022-11-04T00:49:47;12.13;;;6.00;;
34134;SDS011;20410;55.578;12.968;2022-11-04T00:52:13;10.97;;;6.27;;
34134;SDS011;20410;55.578;12.968;2022-11-04T00:54:39;14.93;;;5.90;;
34134;SDS011;20410;55.578;12.968;2022-11-04T00:57:04;13.60;;;6.03;;
34134;SDS011;20410;55.578;12.968;2022-11-04T00:59:32;12.10;;;6.17;;
34134;SDS011;20410;55.578;12.968;2022-11-04T01:01:58;15.67;;;6.60;;
34134;SDS011;20410;55.578;12.968;2022-11-04T01:04:23;13.70;;;6.10;;
34134;SDS011;20410;55.578;12.968;2022-11-04T01:06:49;12.17;;;6.47;;
34134;SDS011;20410;55.578;12.968;2022-11-04T01:09:14;14.20;;;7.00;;
34134;SDS011;20410;55.578;12.968;2022-11-04T01:11:40;14.70;;;7.07;;
34134;SDS011;20410;55.578;12.968;2022-11-04T01:14:05;17.80;;;7.23;;
34134;SDS011;20410;55.578;12.968;2022-11-04T01:16:31;11.80;;;6.47;;
34134;SDS011;20410;55.578;12.968;2022-11-04T01:18:57;14.60;;;7.03;;
34134;SDS011;20410;55.578;12.968;2022-11-04T01:21:23;13.70;;;6.47;;
34134;SDS011;20410;55.578;12.968;2022-11-04T01:23:48;11.97;;;6.60;;
34134;SDS011;20410;55.578;12.968;2022-11-04T01:26:16;11.13;;;6.70;;
34134;SDS011;20410;55.578;12.968;2022-11-04T01:28:44;13.27;;;6.93;;
34134;SDS011;20410;55.578;12.968;2022-11-04T01:31:14;14.97;;;6.77;;
34134;SDS011;20410;55.578;12.968;2022-11-04T01:33:41;14.20;;;6.70;;
34134;SDS011;20410;55.578;12.968;2022-11-04T01:36:11;13.07;;;7.40;;
34134;SDS011;20410;55.578;12.968;2022-11-04T01:38:36;13.63;;;6.87;;
34134;SDS011;20410;55.578;12.968;2022-11-04T01:41:02;14.97;;;7.00;;
34134;SDS011;20410;55.578;12.968;2022-11-04T01:46:23;15.23;;;7.73;;
34134;SDS011;20410;55.578;12.968;2022-11-04T01:48:56;15.57;;;7.50;;
34134;SDS011;20410;55.578;12.968;2022-11-04T01:51:27;15.00;;;7.37;;
34134;SDS011;20410;55.578;12.968;2022-11-04T01:53:56;13.37;;;7.17;;
34134;SDS011;20410;55.578;12.968;2022-11-04T01:56:21;13.40;;;7.80;;
34134;SDS011;20410;55.578;12.968;2022-11-04T01:58:50;16.33;;;7.67;;
34134;SDS011;20410;55.578;12.968;2022-11-04T02:01:17;13.50;;;7.47;;
34134;SDS011;20410;55.578;12.968;2022-11-04T02:04:17;15.77;;;7.80;;
34134;SDS011;20410;55.578;12.968;2022-11-04T02:06:53;15.13;;;8.20;;
34134;SDS011;20410;55.578;12.968;2022-11-04T02:09:27;14.63;;;7.93;;
34134;SDS011;20410;55.578;12.968;2022-11-04T02:11:55;13.93;;;7.50;;
34134;SDS011;20410;55.578;12.968;2022-11-04T02:14:39;15.07;;;8.53;;
34134;SDS011;20410;55.578;12.968;2022-11-04T02:19:53;14.93;;;8.50;;
34134;SDS011;20410;55.578;12.968;2022-11-04T02:22:51;15.53;;;8.10;;
34134;SDS011;20410;55.578;12.968;2022-11-04T02:31:06;14.80;;;8.23;;
34134;SDS011;20410;55.578;12.968;2022-11-04T02:33:40;15.63;;;7.83;;
34134;SDS011;20410;55.578;12.968;2022-11-04T02:36:44;18.00;;;8.07;;
34134;SDS011;20410;55.578;12.968;2022-11-04T02:39:33;18.03;;;8.20;;
34134;SDS011;20410;55.578;12.968;2022-11-04T02:45:20;16.17;;;8.10;;
34134;SDS011;20410;55.578;12.968;2022-11-04T02:47:51;13.87;;;8.40;;
34134;SDS011;20410;55.578;12.968;2022-11-04T02:50:27;15.83;;;8.70;;
34134;SDS011;20410;55.578;12.968;2022-11-04T02:53:11;13.23;;;8.30;;
34134;SDS011;20410;55.578;12.968;2022-11-04T02:55:52;13.70;;;8.67;;
34134;SDS011;20410;55.578;12.968;2022-11-04T02:58:22;14.77;;;7.73;;
34134;SDS011;20410;55.578;12.968;2022-11-04T03:00:53;15.27;;;8.47;;
34134;SDS011;20410;55.578;12.968;2022-11-04T03:03:22;16.40;;;8.87;;
34134;SDS011;20410;55.578;12.968;2022-11-04T03:05:51;15.07;;;8.17;;
34134;SDS011;20410;55.578;12.968;2022-11-04T03:08:20;14.00;;;8.50;;
34134;SDS011;20410;55.578;12.968;2022-11-04T03:10:55;13.23;;;8.30;;
34134;SDS011;20410;55.578;12.968;2022-11-04T03:13:28;15.70;;;7.80;;
34134;SDS011;20410;55.578;12.968;2022-11-04T03:16:00;18.57;;;9.40;;
34134;SDS011;20410;55.578;12.968;2022-11-04T03:18:31;14.70;;;8.43;;
34134;SDS011;20410;55.578;12.968;2022-11-04T03:21:00;16.03;;;8.57;;
34134;SDS011;20410;55.578;12.968;2022-11-04T03:23:28;15.27;;;8.77;;
34134;SDS011;20410;55.578;12.968;2022-11-04T03:25:56;16.07;;;8.53;;
34134;SDS011;20410;55.578;12.968;2022-11-04T03:31:08;15.23;;;8.53;;
34134;SDS011;20410;55.578;12.968;2022-11-04T03:33:47;18.60;;;9.43;;
34134;SDS011;20410;55.578;12.968;2022-11-04T03:36:15;17.37;;;8.60;;
34134;SDS011;20410;55.578;12.968;2022-11-04T03:38:41;16.47;;;9.10;;
34134;SDS011;20410;55.578;12.968;2022-11-04T03:41:17;18.00;;;8.73;;
34134;SDS011;20410;55.578;12.968;2022-11-04T03:43:48;17.17;;;8.90;;
34134;SDS011;20410;55.578;12.968;2022-11-04T03:46:14;16.53;;;8.97;;
34134;SDS011;20410;55.578;12.968;2022-11-04T03:48:39;16.30;;;8.97;;
34134;SDS011;20410;55.578;12.968;2022-11-04T03:51:07;14.37;;;8.67;;
34134;SDS011;20410;55.578;12.968;2022-11-04T03:53:33;17.67;;;9.00;;
34134;SDS011;20410;55.578;12.968;2022-11-04T03:56:02;15.50;;;8.60;;
34134;SDS011;20410;55.578;12.968;2022-11-04T04:06:50;18.20;;;9.83;;
34134;SDS011;20410;55.578;12.968;2022-11-04T04:09:21;15.97;;;9.87;;
34134;SDS011;20410;55.578;12.968;2022-11-04T04:14:28;21.10;;;10.23;;
34134;SDS011;20410;55.578;12.968;2022-11-04T04:19:45;23.00;;;10.23;;
34134;SDS011;20410;55.578;12.968;2022-11-04T04:22:22;17.40;;;9.50;;
34134;SDS011;20410;55.578;12.968;2022-11-04T04:24:52;17.10;;;10.00;;
34134;SDS011;20410;55.578;12.968;2022-11-04T04:27:39;17.47;;;10.17;;
34134;SDS011;20410;55.578;12.968;2022-11-04T04:30:08;18.57;;;10.90;;
34134;SDS011;20410;55.578;12.968;2022-11-04T04:32:36;19.83;;;10.53;;
34134;SDS011;20410;55.578;12.968;2022-11-04T04:35:25;18.37;;;10.53;;
34134;SDS011;20410;55.578;12.968;2022-11-04T04:38:27;16.10;;;10.07;;
34134;SDS011;20410;55.578;12.968;2022-11-04T04:41:13;15.13;;;10.53;;
34134;SDS011;20410;55.578;12.968;2022-11-04T04:44:03;16.13;;;10.30;;
34134;SDS011;20410;55.578;12.968;2022-11-04T04:46:58;14.53;;;10.30;;
34134;SDS011;20410;55.578;12.968;2022-11-04T04:49:26;19.63;;;9.97;;
34134;SDS011;20410;55.578;12.968;2022-11-04T04:51:58;17.10;;;10.87;;
34134;SDS011;20410;55.578;12.968;2022-11-04T04:54:26;19.77;;;11.23;;
34134;SDS011;20410;55.578;12.968;2022-11-04T04:56:51;18.87;;;11.20;;
34134;SDS011;20410;55.578;12.968;2022-11-04T04:59:17;19.80;;;11.07;;
34134;SDS011;20410;55.578;12.968;2022-11-04T05:01:43;18.17;;;11.07;;
34134;SDS011;20410;55.578;12.968;2022-11-04T05:04:08;15.73;;;10.60;;
34134;SDS011;20410;55.578;12.968;2022-11-04T05:06:34;17.80;;;10.53;;
34134;SDS011;20410;55.578;12.968;2022-11-04T05:08:59;17.17;;;10.70;;
34134;SDS011;20410;55.578;12.968;2022-11-04T05:11:25;18.20;;;11.47;;
34134;SDS011;20410;55.578;12.968;2022-11-04T05:13:50;15.83;;;11.20;;
34134;SDS011;20410;55.578;12.968;2022-11-04T05:16:16;19.20;;;11.73;;
34134;SDS011;20410;55.578;12.968;2022-11-04T05:18:41;20.47;;;11.60;;
34134;SDS011;20410;55.578;12.968;2022-11-04T05:21:09;19.77;;;11.27;;
34134;SDS011;20410;55.578;12.968;2022-11-04T05:23:36;16.23;;;11.13;;
34134;SDS011;20410;55.578;12.968;2022-11-04T05:26:02;20.47;;;11.83;;
34134;SDS011;20410;55.578;12.968;2022-11-04T05:28:27;16.97;;;11.10;;
34134;SDS011;20410;55.578;12.968;2022-11-04T05:30:53;19.73;;;11.63;;
34134;SDS011;20410;55.578;12.968;2022-11-04T05:33:19;18.50;;;10.90;;
34134;SDS011;20410;55.578;12.968;2022-11-04T05:35:44;21.93;;;10.80;;
34134;SDS011;20410;55.578;12.968;2022-11-04T05:38:10;18.10;;;10.90;;
34134;SDS011;20410;55.578;12.968;2022-11-04T05:40:35;18.47;;;11.37;;
34134;SDS011;20410;55.578;12.968;2022-11-04T05:43:01;19.70;;;11.83;;
34134;SDS011;20410;55.578;12.968;2022-11-04T05:45:27;20.80;;;12.20;;
34134;SDS011;20410;55.578;12.968;2022-11-04T05:48:00;21.30;;;11.53;;
34134;SDS011;20410;55.578;12.968;2022-11-04T05:50:27;19.83;;;12.53;;
34134;SDS011;20410;55.578;12.968;2022-11-04T05:52:55;24.00;;;12.43;;
34134;SDS011;20410;55.578;12.968;2022-11-04T05:55:22;19.00;;;11.73;;
34134;SDS011;20410;55.578;12.968;2022-11-04T05:57:47;24.70;;;12.00;;
34134;SDS011;20410;55.578;12.968;2022-11-04T06:00:13;20.00;;;11.77;;
34134;SDS011;20410;55.578;12.968;2022-11-04T06:02:39;19.40;;;11.80;;
34134;SDS011;20410;55.578;12.968;2022-11-04T06:05:04;20.47;;;11.50;;
34134;SDS011;20410;55.578;12.968;2022-11-04T06:07:30;20.97;;;12.60;;
34134;SDS011;20410;55.578;12.968;2022-11-04T06:09:56;18.70;;;11.40;;
34134;SDS011;20410;55.578;12.968;2022-11-04T06:12:21;20.37;;;13.40;;
34134;SDS011;20410;55.578;12.968;2022-11-04T06:14:47;21.90;;;12.13;;
34134;SDS011;20410;55.578;12.968;2022-11-04T06:17:13;21.13;;;12.83;;
34134;SDS011;20410;55.578;12.968;2022-11-04T06:19:40;22.53;;;14.33;;
34134;SDS011;20410;55.578;12.968;2022-11-04T06:22:07;19.40;;;13.90;;
34134;SDS011;20410;55.578;12.968;2022-11-04T06:24:34;20.10;;;14.20;;
34134;SDS011;20410;55.578;12.968;2022-11-04T06:27:00;18.07;;;13.40;;
34134;SDS011;20410;55.578;12.968;2022-11-04T06:29:26;21.23;;;14.20;;
34134;SDS011;20410;55.578;12.968;2022-11-04T06:31:51;22.77;;;15.07;;
34134;SDS011;20410;55.578;12.968;2022-11-04T06:34:17;20.67;;;14.00;;
34134;SDS011;20410;55.578;12.968;2022-11-04T06:36:43;23.03;;;14.83;;
34134;SDS011;20410;55.578;12.968;2022-11-04T06:39:08;23.50;;;14.37;;
34134;SDS011;20410;55.578;12.968;2022-11-04T06:41:34;22.80;;;14.97;;
34134;SDS011;20410;55.578;12.968;2022-11-04T06:43:59;20.33;;;14.63;;
34134;SDS011;20410;55.578;12.968;2022-11-04T06:46:26;20.77;;;14.20;;
34134;SDS011;20410;55.578;12.968;2022-11-04T06:48:55;25.73;;;14.43;;
34134;SDS011;20410;55.578;12.968;2022-11-04T06:51:21;18.20;;;14.13;;
34134;SDS011;20410;55.578;12.968;2022-11-04T06:53:47;21.33;;;14.10;;
34134;SDS011;20410;55.578;12.968;2022-11-04T06:56:13;25.33;;;14.03;;
34134;SDS011;20410;55.578;12.968;2022-11-04T06:58:39;21.83;;;14.80;;
34134;SDS011;20410;55.578;12.968;2022-11-04T07:01:04;22.27;;;15.60;;
34134;SDS011;20410;55.578;12.968;2022-11-04T07:03:30;19.93;;;14.67;;
34134;SDS011;20410;55.578;12.968;2022-11-04T07:05:56;22.07;;;14.60;;
34134;SDS011;20410;55.578;12.968;2022-11-04T07:08:21;21.60;;;14.83;;
34134;SDS011;20410;55.578;12.968;2022-11-04T07:10:47;19.87;;;14.60;;
34134;SDS011;20410;55.578;12.968;2022-11-04T07:13:12;21.20;;;14.17;;
34134;SDS011;20410;55.578;12.968;2022-11-04T07:15:38;21.57;;;15.03;;
34134;SDS011;20410;55.578;12.968;2022-11-04T07:18:04;26.07;;;15.83;;
34134;SDS011;20410;55.578;12.968;2022-11-04T07:20:31;20.40;;;14.27;;
34134;SDS011;20410;55.578;12.968;2022-11-04T07:22:58;25.10;;;15.13;;
34134;SDS011;20410;55.578;12.968;2022-11-04T07:25:23;20.30;;;14.83;;
34134;SDS011;20410;55.578;12.968;2022-11-04T07:27:49;24.97;;;15.07;;
34134;SDS011;20410;55.578;12.968;2022-11-04T07:30:15;25.43;;;14.97;;
34134;SDS011;20410;55.578;12.968;2022-11-04T07:32:41;24.13;;;15.80;;
34134;SDS011;20410;55.578;12.968;2022-11-04T07:35:06;24.03;;;14.87;;
34134;SDS011;20410;55.578;12.968;2022-11-04T07:37:32;19.27;;;13.63;;
34134;SDS011;20410;55.578;12.968;2022-11-04T07:39:58;26.80;;;15.30;;
34134;SDS011;20410;55.578;12.968;2022-11-04T07:42:23;22.87;;;15.17;;
34134;SDS011;20410;55.578;12.968;2022-11-04T07:44:49;22.43;;;14.83;;
34134;SDS011;20410;55.578;12.968;2022-11-04T07:47:14;21.93;;;14.33;;
34134;SDS011;20410;55.578;12.968;2022-11-04T07:49:40;25.37;;;14.87;;
34134;SDS011;20410;55.578;12.968;2022-11-04T07:52:05;23.87;;;15.50;;
34134;SDS011;20410;55.578;12.968;2022-11-04T07:54:31;19.43;;;14.63;;
34134;SDS011;20410;55.578;12.968;2022-11-04T07:56:57;28.13;;;15.47;;
34134;SDS011;20410;55.578;12.968;2022-11-04T07:59:22;21.70;;;15.83;;
34134;SDS011;20410;55.578;12.968;2022-11-04T08:01:48;25.70;;;15.13;;
34134;SDS011;20410;55.578;12.968;2022-11-04T08:04:13;24.10;;;15.37;;
34134;SDS011;20410;55.578;12.968;2022-11-04T08:06:39;24.57;;;15.10;;
34134;SDS011;20410;55.578;12.968;2022-11-04T08:09:04;26.77;;;15.63;;
34134;SDS011;20410;55.578;12.968;2022-11-04T08:11:30;21.60;;;14.37;;
34134;SDS011;20410;55.578;12.968;2022-11-04T08:13:56;23.17;;;15.37;;
34134;SDS011;20410;55.578;12.968;2022-11-04T08:16:22;26.97;;;15.23;;
34134;SDS011;20410;55.578;12.968;2022-11-04T08:18:49;21.57;;;16.17;;
34134;SDS011;20410;55.578;12.968;2022-11-04T08:21:16;25.00;;;16.93;;
34134;SDS011;20410;55.578;12.968;2022-11-04T08:23:43;24.40;;;16.00;;
34134;SDS011;20410;55.578;12.968;2022-11-04T08:26:14;29.20;;;17.93;;
34134;SDS011;20410;55.578;12.968;2022-11-04T08:28:42;25.27;;;16.70;;
34134;SDS011;20410;55.578;12.968;2022-11-04T08:31:13;23.27;;;16.03;;
34134;SDS011;20410;55.578;12.968;2022-11-04T08:33:53;26.17;;;16.50;;
34134;SDS011;20410;55.578;12.968;2022-11-04T08:36:20;25.93;;;15.73;;
34134;SDS011;20410;55.578;12.968;2022-11-04T08:38:54;26.27;;;17.47;;
34134;SDS011;20410;55.578;12.968;2022-11-04T08:41:22;26.73;;;17.20;;
34134;SDS011;20410;55.578;12.968;2022-11-04T08:43:49;23.67;;;16.90;;
34134;SDS011;20410;55.578;12.968;2022-11-04T08:46:15;26.33;;;18.03;;
34134;SDS011;20410;55.578;12.968;2022-11-04T08:48:42;28.90;;;18.20;;
34134;SDS011;20410;55.578;12.968;2022-11-04T08:51:16;27.00;;;17.87;;
34134;SDS011;20410;55.578;12.968;2022-11-04T08:53:43;30.43;;;17.93;;
34134;SDS011;20410;55.578;12.968;2022-11-04T08:56:25;29.73;;;18.90;;
34134;SDS011;20410;55.578;12.968;2022-11-04T08:58:53;27.07;;;17.80;;
34134;SDS011;20410;55.578;12.968;2022-11-04T09:01:19;25.20;;;18.83;;
34134;SDS011;20410;55.578;12.968;2022-11-04T09:03:45;28.70;;;19.60;;
34134;SDS011;20410;55.578;12.968;2022-11-04T09:06:13;28.30;;;18.30;;
34134;SDS011;20410;55.578;12.968;2022-11-04T09:08:41;29.00;;;19.37;;
34134;SDS011;20410;55.578;12.968;2022-11-04T09:11:08;27.37;;;19.33;;
34134;SDS011;20410;55.578;12.968;2022-11-04T09:13:35;29.20;;;20.23;;
34134;SDS011;20410;55.578;12.968;2022-11-04T09:16:02;32.20;;;21.37;;
34134;SDS011;20410;55.578;12.968;2022-11-04T09:18:28;33.67;;;20.43;;
34134;SDS011;20410;55.578;12.968;2022-11-04T09:20:54;26.17;;;19.77;;
34134;SDS011;20410;55.578;12.968;2022-11-04T09:23:20;27.90;;;19.80;;
34134;SDS011;20410;55.578;12.968;2022-11-04T09:25:45;31.57;;;21.63;;
34134;SDS011;20410;55.578;12.968;2022-11-04T09:28:11;28.70;;;20.73;;
34134;SDS011;20410;55.578;12.968;2022-11-04T09:30:36;30.93;;;20.73;;
34134;SDS011;20410;55.578;12.968;2022-11-04T09:33:02;31.17;;;21.33;;
34134;SDS011;20410;55.578;12.968;2022-11-04T09:35:28;32.33;;;21.20;;
34134;SDS011;20410;55.578;12.968;2022-11-04T09:37:54;32.27;;;21.83;;
34134;SDS011;20410;55.578;12.968;2022-11-04T09:40:20;27.13;;;20.80;;
34134;SDS011;20410;55.578;12.968;2022-11-04T09:42:52;35.00;;;20.93;;
34134;SDS011;20410;55.578;12.968;2022-11-04T09:45:33;30.43;;;20.60;;
34134;SDS011;20410;55.578;12.968;2022-11-04T09:48:11;29.10;;;19.90;;
34134;SDS011;20410;55.578;12.968;2022-11-04T09:50:46;27.60;;;20.67;;
34134;SDS011;20410;55.578;12.968;2022-11-04T09:56:19;30.03;;;20.27;;
34134;SDS011;20410;55.578;12.968;2022-11-04T09:58:47;29.40;;;19.57;;
34134;SDS011;20410;55.578;12.968;2022-11-04T10:20:18;26.27;;;15.80;;
34134;SDS011;20410;55.578;12.968;2022-11-04T10:22:54;19.97;;;14.23;;
34134;SDS011;20410;55.578;12.968;2022-11-04T10:25:24;20.77;;;14.50;;
34134;SDS011;20410;55.578;12.968;2022-11-04T10:27:58;21.70;;;13.30;;
34134;SDS011;20410;55.578;12.968;2022-11-04T10:30:24;17.30;;;12.50;;
34134;SDS011;20410;55.578;12.968;2022-11-04T10:35:41;18.67;;;12.50;;
34134;SDS011;20410;55.578;12.968;2022-11-04T10:38:14;18.17;;;13.67;;
34134;SDS011;20410;55.578;12.968;2022-11-04T10:40:52;15.03;;;11.73;;
34134;SDS011;20410;55.578;12.968;2022-11-04T10:43:37;18.67;;;11.60;;
34134;SDS011;20410;55.578;12.968;2022-11-04T10:49:21;19.20;;;12.07;;
34134;SDS011;20410;55.578;12.968;2022-11-04T10:52:06;17.43;;;12.20;;
34134;SDS011;20410;55.578;12.968;2022-11-04T10:54:38;14.80;;;11.03;;
34134;SDS011;20410;55.578;12.968;2022-11-04T10:57:09;16.30;;;12.17;;
34134;SDS011;20410;55.578;12.968;2022-11-04T11:05:20;19.17;;;12.00;;
34134;SDS011;20410;55.578;12.968;2022-11-04T11:07:52;19.23;;;12.53;;
34134;SDS011;20410;55.578;12.968;2022-11-04T11:12:51;21.73;;;12.40;;
34134;SDS011;20410;55.578;12.968;2022-11-04T11:15:26;16.33;;;12.30;;
34134;SDS011;20410;55.578;12.968;2022-11-04T11:20:30;15.90;;;11.50;;
34134;SDS011;20410;55.578;12.968;2022-11-04T11:22:57;18.10;;;11.27;;
34134;SDS011;20410;55.578;12.968;2022-11-04T11:30:20;19.93;;;11.37;;
34134;SDS011;20410;55.578;12.968;2022-11-04T11:32:58;16.67;;;10.90;;
34134;SDS011;20410;55.578;12.968;2022-11-04T11:35:29;15.13;;;11.03;;
34134;SDS011;20410;55.578;12.968;2022-11-04T11:37:57;14.93;;;10.73;;
34134;SDS011;20410;55.578;12.968;2022-11-04T11:40:34;20.37;;;13.83;;
34134;SDS011;20410;55.578;12.968;2022-11-04T11:43:02;14.80;;;11.03;;
34134;SDS011;20410;55.578;12.968;2022-11-04T11:45:28;11.87;;;9.70;;
34134;SDS011;20410;55.578;12.968;2022-11-04T11:47:56;13.67;;;9.87;;
34134;SDS011;20410;55.578;12.968;2022-11-04T11:50:22;11.17;;;9.07;;
34134;SDS011;20410;55.578;12.968;2022-11-04T11:53:05;15.67;;;10.03;;
34134;SDS011;20410;55.578;12.968;2022-11-04T11:55:38;13.57;;;9.30;;
34134;SDS011;20410;55.578;12.968;2022-11-04T12:00:52;12.63;;;8.30;;
34134;SDS011;20410;55.578;12.968;2022-11-04T12:06:19;14.67;;;9.40;;
34134;SDS011;20410;55.578;12.968;2022-11-04T12:09:22;12.20;;;8.57;;
34134;SDS011;20410;55.578;12.968;2022-11-04T12:20:09;12.97;;;7.57;;
34134;SDS011;20410;55.578;12.968;2022-11-04T12:32:02;14.30;;;7.77;;
34134;SDS011;20410;55.578;12.968;2022-11-04T12:56:17;12.53;;;6.70;;
34134;SDS011;20410;55.578;12.968;2022-11-04T13:01:44;11.50;;;6.10;;
34134;SDS011;20410;55.578;12.968;2022-11-04T13:04:16;8.60;;;6.00;;
34134;SDS011;20410;55.578;12.968;2022-11-04T13:07:13;9.23;;;6.17;;
34134;SDS011;20410;55.578;12.968;2022-11-04T13:09:53;10.37;;;6.13;;
34134;SDS011;20410;55.578;12.968;2022-11-04T13:12:23;11.63;;;6.47;;
34134;SDS011;20410;55.578;12.968;2022-11-04T13:17:50;11.00;;;6.60;;
34134;SDS011;20410;55.578;12.968;2022-11-04T13:20:31;12.17;;;7.33;;
34134;SDS011;20410;55.578;12.968;2022-11-04T13:23:09;17.83;;;8.23;;
34134;SDS011;20410;55.578;12.968;2022-11-04T13:25:43;9.83;;;6.60;;
34134;SDS011;20410;55.578;12.968;2022-11-04T13:28:11;8.80;;;6.77;;
34134;SDS011;20410;55.578;12.968;2022-11-04T13:30:42;8.40;;;6.00;;
34134;SDS011;20410;55.578;12.968;2022-11-04T13:36:09;7.67;;;5.90;;
34134;SDS011;20410;55.578;12.968;2022-11-04T13:38:56;7.30;;;5.53;;
34134;SDS011;20410;55.578;12.968;2022-11-04T13:44:24;12.23;;;6.20;;
34134;SDS011;20410;55.578;12.968;2022-11-04T13:46:59;9.13;;;5.40;;
34134;SDS011;20410;55.578;12.968;2022-11-04T13:49:30;9.00;;;5.10;;
34134;SDS011;20410;55.578;12.968;2022-11-04T13:52:08;11.93;;;5.50;;
34134;SDS011;20410;55.578;12.968;2022-11-04T13:54:40;12.07;;;5.97;;
34134;SDS011;20410;55.578;12.968;2022-11-04T13:57:20;8.93;;;5.27;;
34134;SDS011;20410;55.578;12.968;2022-11-04T14:02:46;7.10;;;4.53;;
34134;SDS011;20410;55.578;12.968;2022-11-04T14:18:41;8.20;;;4.47;;
34134;SDS011;20410;55.578;12.968;2022-11-04T14:21:25;7.93;;;4.00;;
34134;SDS011;20410;55.578;12.968;2022-11-04T14:26:25;10.13;;;4.07;;
34134;SDS011;20410;55.578;12.968;2022-11-04T14:29:11;6.37;;;3.77;;
34134;SDS011;20410;55.578;12.968;2022-11-04T14:31:47;4.77;;;3.60;;
34134;SDS011;20410;55.578;12.968;2022-11-04T14:34:25;4.73;;;3.00;;
34134;SDS011;20410;55.578;12.968;2022-11-04T14:37:00;5.97;;;3.30;;
34134;SDS011;20410;55.578;12.968;2022-11-04T14:39:39;5.40;;;2.80;;
34134;SDS011;20410;55.578;12.968;2022-11-04T14:42:07;5.57;;;3.00;;
34134;SDS011;20410;55.578;12.968;2022-11-04T14:44:40;4.93;;;2.60;;
34134;SDS011;20410;55.578;12.968;2022-11-04T14:47:24;3.37;;;1.80;;
34134;SDS011;20410;55.578;12.968;2022-11-04T14:54:48;4.53;;;2.80;;
34134;SDS011;20410;55.578;12.968;2022-11-04T14:57:18;3.37;;;2.20;;
34134;SDS011;20410;55.578;12.968;2022-11-04T14:59:45;6.20;;;2.57;;
34134;SDS011;20410;55.578;12.968;2022-11-04T15:02:22;5.13;;;2.67;;
34134;SDS011;20410;55.578;12.968;2022-11-04T15:04:50;7.83;;;2.40;;
34134;SDS011;20410;55.578;12.968;2022-11-04T15:09:55;3.17;;;1.90;;
34134;SDS011;20410;55.578;12.968;2022-11-04T15:12:20;4.10;;;2.43;;
34134;SDS011;20410;55.578;12.968;2022-11-04T15:15:22;6.87;;;2.70;;
34134;SDS011;20410;55.578;12.968;2022-11-04T15:18:04;7.90;;;3.30;;
34134;SDS011;20410;55.578;12.968;2022-11-04T15:20:51;8.37;;;3.60;;
34134;SDS011;20410;55.578;12.968;2022-11-04T15:23:29;7.53;;;4.07;;
34134;SDS011;20410;55.578;12.968;2022-11-04T15:25:57;8.13;;;3.73;;
34134;SDS011;20410;55.578;12.968;2022-11-04T15:28:27;6.43;;;3.00;;
34134;SDS011;20410;55.578;12.968;2022-11-04T15:31:06;3.67;;;2.37;;
34134;SDS011;20410;55.578;12.968;2022-11-04T15:33:44;10.67;;;2.63;;
34134;SDS011;20410;55.578;12.968;2022-11-04T15:36:16;5.10;;;2.70;;
34134;SDS011;20410;55.578;12.968;2022-11-04T15:38:45;5.23;;;2.50;;
34134;SDS011;20410;55.578;12.968;2022-11-04T15:41:14;4.47;;;2.30;;
34134;SDS011;20410;55.578;12.968;2022-11-04T15:44:02;5.43;;;2.30;;
34134;SDS011;20410;55.578;12.968;2022-11-04T15:46:27;6.17;;;2.53;;
34134;SDS011;20410;55.578;12.968;2022-11-04T15:49:04;7.00;;;2.37;;
34134;SDS011;20410;55.578;12.968;2022-11-04T15:51:35;5.60;;;2.00;;
34134;SDS011;20410;55.578;12.968;2022-11-04T15:54:04;3.87;;;1.80;;
34134;SDS011;20410;55.578;12.968;2022-11-04T15:56:40;4.60;;;2.10;;
34134;SDS011;20410;55.578;12.968;2022-11-04T15:59:13;6.03;;;2.40;;
34134;SDS011;20410;55.578;12.968;2022-11-04T16:01:45;5.53;;;2.23;;
34134;SDS011;20410;55.578;12.968;2022-11-04T16:04:13;4.20;;;2.00;;
34134;SDS011;20410;55.578;12.968;2022-11-04T16:06:41;4.73;;;2.33;;
34134;SDS011;20410;55.578;12.968;2022-11-04T16:11:35;7.73;;;3.97;;
34134;SDS011;20410;55.578;12.968;2022-11-04T16:14:18;6.27;;;3.10;;
34134;SDS011;20410;55.578;12.968;2022-11-04T16:16:50;8.10;;;2.80;;
34134;SDS011;20410;55.578;12.968;2022-11-04T16:19:21;6.37;;;2.87;;
34134;SDS011;20410;55.578;12.968;2022-11-04T16:21:57;5.07;;;3.00;;
34134;SDS011;20410;55.578;12.968;2022-11-04T16:24:24;6.87;;;3.03;;
34134;SDS011;20410;55.578;12.968;2022-11-04T16:26:54;5.30;;;2.97;;
34134;SDS011;20410;55.578;12.968;2022-11-04T16:29:32;6.67;;;2.63;;
34134;SDS011;20410;55.578;12.968;2022-11-04T16:34:43;9.60;;;3.43;;
34134;SDS011;20410;55.578;12.968;2022-11-04T16:37:10;6.87;;;3.00;;
34134;SDS011;20410;55.578;12.968;2022-11-04T16:39:37;4.37;;;2.50;;
34134;SDS011;20410;55.578;12.968;2022-11-04T16:42:03;7.33;;;3.10;;
34134;SDS011;20410;55.578;12.968;2022-11-04T16:44:30;4.03;;;2.83;;
34134;SDS011;20410;55.578;12.968;2022-11-04T16:46:56;5.97;;;3.60;;
34134;SDS011;20410;55.578;12.968;2022-11-04T16:49:23;6.93;;;3.00;;
34134;SDS011;20410;55.578;12.968;2022-11-04T16:51:52;5.37;;;2.80;;
34134;SDS011;20410;55.578;12.968;2022-11-04T16:54:24;4.47;;;2.40;;
34134;SDS011;20410;55.578;12.968;2022-11-04T16:56:51;5.67;;;2.80;;
34134;SDS011;20410;55.578;12.968;2022-11-04T16:59:18;4.03;;;2.33;;
34134;SDS011;20410;55.578;12.968;2022-11-04T17:01:44;12.03;;;3.83;;
34134;SDS011;20410;55.578;12.968;2022-11-04T17:04:09;9.20;;;3.50;;
34134;SDS011;20410;55.578;12.968;2022-11-04T17:06:35;8.57;;;3.00;;
34134;SDS011;20410;55.578;12.968;2022-11-04T17:09:02;6.70;;;2.77;;
34134;SDS011;20410;55.578;12.968;2022-11-04T17:11:28;5.63;;;2.70;;
34134;SDS011;20410;55.578;12.968;2022-11-04T17:13:54;7.03;;;2.77;;
34134;SDS011;20410;55.578;12.968;2022-11-04T17:16:20;8.87;;;2.53;;
34134;SDS011;20410;55.578;12.968;2022-11-04T17:18:45;5.80;;;3.87;;
34134;SDS011;20410;55.578;12.968;2022-11-04T17:21:12;10.87;;;4.77;;